Time;durP1;ratioP1;P1;durP2;ratioP2;P2;SDS_P1;SDS_P2;PMS_P1;PMS_P2;Temp;Humidity;BMP_temperature;BMP_pressure;BME280_temperature;BME280_humidity;BME280_pressure;Samples;Min_cycle;Max_cycle;Signal;HPM_P1;HPM_P2
2023/11/30 00:00:32;;;;;;;13.65;11.98;;;;;;;;;;5052972;28;20048;-83
2023/11/30 00:03:05;;;;;;;13.93;11.40;;;;;;;;;;5036492;28;20056;-83
2023/11/30 00:05:36;;;;;;;12.15;10.63;;;;;;;;;;5047248;28;20045;-83
2023/11/30 00:08:03;;;;;;;15.98;11.73;;;;;;;;;;5035440;28;20050;-82
2023/11/30 00:10:31;;;;;;;13.48;11.85;;;;;;;;;;5036820;28;20059;-82
2023/11/30 00:13:04;;;;;;;15.18;13.60;;;;;;;;;;5050560;28;20072;-83
2023/11/30 00:15:33;;;;;;;13.40;10.90;;;;;;;;;;5054468;28;20058;-83
2023/11/30 00:18:01;;;;;;;13.70;10.73;;;;;;;;;;5019994;28;20049;-83
2023/11/30 00:20:28;;;;;;;14.07;12.65;;;;;;;;;;5039482;28;20055;-83
2023/11/30 00:22:59;;;;;;;17.73;12.93;;;;;;;;;;5034843;28;20060;-82
2023/11/30 00:25:28;;;;;;;14.98;12.10;;;;;;;;;;5064809;28;20047;-82
2023/11/30 00:27:56;;;;;;;14.20;12.60;;;;;;;;;;5048161;28;20057;-82
2023/11/30 00:30:23;;;;;;;17.42;11.25;;;;;;;;;;5060350;28;20041;-82
2023/11/30 00:32:50;;;;;;;15.88;11.98;;;;;;;;;;5052809;28;20162;-83
2023/11/30 00:35:20;;;;;;;14.55;12.40;;;;;;;;;;5069823;28;20419;-82
2023/11/30 00:37:47;;;;;;;13.93;11.45;;;;;;;;;;5025414;28;20415;-82
2023/11/30 00:40:16;;;;;;;14.35;10.95;;;;;;;;;;5006220;28;20518;-83
2023/11/30 00:42:43;;;;;;;14.68;12.50;;;;;;;;;;5013397;28;20049;-82
2023/11/30 00:45:11;;;;;;;13.13;9.80;;;;;;;;;;5021687;28;20048;-82
2023/11/30 00:47:40;;;;;;;16.10;12.90;;;;;;;;;;5018037;28;20053;-82
2023/11/30 00:50:09;;;;;;;13.68;10.80;;;;;;;;;;5023036;28;20049;-82
2023/11/30 00:52:36;;;;;;;12.82;10.93;;;;;;;;;;5018407;28;20049;-82
2023/11/30 00:55:04;;;;;;;11.65;9.27;;;;;;;;;;5021054;28;20487;-82
2023/11/30 00:57:32;;;;;;;15.13;11.68;;;;;;;;;;5031711;28;20037;-82
2023/11/30 01:00:00;;;;;;;12.93;10.93;;;;;;;;;;5018708;28;20052;-83
2023/11/30 01:02:27;;;;;;;13.27;10.38;;;;;;;;;;5029572;28;20052;-82
2023/11/30 01:04:57;;;;;;;13.63;10.05;;;;;;;;;;5018450;28;20044;-82
2023/11/30 01:07:25;;;;;;;13.75;9.68;;;;;;;;;;5011347;28;20045;-82
2023/11/30 01:09:52;;;;;;;10.93;9.73;;;;;;;;;;5027279;28;20053;-82
2023/11/30 01:12:19;;;;;;;11.30;10.07;;;;;;;;;;5029853;28;20064;-82
2023/11/30 01:14:48;;;;;;;12.43;11.07;;;;;;;;;;5035425;28;20045;-82
2023/11/30 01:17:15;;;;;;;12.18;10.43;;;;;;;;;;5028481;28;20060;-82
2023/11/30 01:19:42;;;;;;;15.38;13.30;;;;;;;;;;5043232;28;20053;-83
2023/11/30 01:22:10;;;;;;;16.42;11.23;;;;;;;;;;5043343;28;20049;-83
2023/11/30 01:24:37;;;;;;;13.30;11.90;;;;;;;;;;5005903;28;20049;-82
2023/11/30 01:27:05;;;;;;;18.67;12.77;;;;;;;;;;5012366;28;20049;-82
2023/11/30 01:29:32;;;;;;;16.73;13.52;;;;;;;;;;5046932;28;20196;-82
2023/11/30 01:32:01;;;;;;;17.20;13.80;;;;;;;;;;5015913;28;20046;-82
2023/11/30 01:34:31;;;;;;;15.88;11.80;;;;;;;;;;5013154;28;20408;-82
2023/11/30 01:36:58;;;;;;;17.45;13.55;;;;;;;;;;5007259;28;20048;-82
2023/11/30 01:39:26;;;;;;;14.27;11.63;;;;;;;;;;5030152;28;20048;-82
2023/11/30 01:41:53;;;;;;;13.88;11.07;;;;;;;;;;5030680;28;20427;-82
2023/11/30 01:44:20;;;;;;;13.73;11.35;;;;;;;;;;5034385;28;20056;-82
2023/11/30 01:46:48;;;;;;;15.40;12.52;;;;;;;;;;5004828;28;20042;-82
2023/11/30 01:49:16;;;;;;;12.98;11.68;;;;;;;;;;5015970;28;20049;-81
2023/11/30 01:51:44;;;;;;;15.70;13.13;;;;;;;;;;5013682;28;20042;-81
2023/11/30 01:54:11;;;;;;;18.15;12.50;;;;;;;;;;5032768;28;20060;-81
2023/11/30 01:56:41;;;;;;;14.15;11.48;;;;;;;;;;5032300;28;20049;-81
2023/11/30 01:59:11;;;;;;;13.27;10.73;;;;;;;;;;5015994;28;20056;-81
2023/11/30 02:01:39;;;;;;;12.00;10.52;;;;;;;;;;5028118;28;20404;-81
2023/11/30 02:04:11;;;;;;;12.50;10.90;;;;;;;;;;5040041;28;20487;-81
2023/11/30 02:06:43;;;;;;;12.07;10.20;;;;;;;;;;5026078;28;20228;-81
2023/11/30 02:09:10;;;;;;;11.85;10.45;;;;;;;;;;5034828;28;20061;-81
2023/11/30 02:11:39;;;;;;;13.98;11.63;;;;;;;;;;5028797;28;20049;-81
2023/11/30 02:14:06;;;;;;;14.40;10.90;;;;;;;;;;5040035;28;20055;-81
2023/11/30 02:16:34;;;;;;;15.63;10.85;;;;;;;;;;5047963;28;20115;-81
2023/11/30 02:19:01;;;;;;;12.77;10.32;;;;;;;;;;5041775;28;20426;-81
2023/11/30 02:21:28;;;;;;;11.88;10.77;;;;;;;;;;5055713;28;20059;-81
2023/11/30 02:24:02;;;;;;;13.57;10.50;;;;;;;;;;5042396;28;20053;-81
2023/11/30 02:26:30;;;;;;;13.13;11.27;;;;;;;;;;5042232;28;20764;-81
2023/11/30 02:28:57;;;;;;;13.90;11.68;;;;;;;;;;5021763;28;20046;-81
2023/11/30 02:31:27;;;;;;;13.25;11.57;;;;;;;;;;5014119;28;20060;-81
2023/11/30 02:33:54;;;;;;;12.85;9.75;;;;;;;;;;5048496;28;20591;-81
2023/11/30 02:36:24;;;;;;;11.32;9.77;;;;;;;;;;5015306;28;20056;-81
2023/11/30 02:38:51;;;;;;;13.68;11.20;;;;;;;;;;5016986;28;20311;-81
2023/11/30 02:41:21;;;;;;;13.02;11.27;;;;;;;;;;5022886;28;20053;-81
2023/11/30 02:43:49;;;;;;;15.48;10.32;;;;;;;;;;5044257;28;20364;-81
2023/11/30 02:46:16;;;;;;;11.80;10.55;;;;;;;;;;5020345;28;20523;-81
2023/11/30 02:48:43;;;;;;;11.63;10.02;;;;;;;;;;5026021;28;20052;-81
2023/11/30 02:51:13;;;;;;;14.52;11.40;;;;;;;;;;5040818;28;20060;-81
2023/11/30 02:53:40;;;;;;;11.50;9.38;;;;;;;;;;5025573;28;20044;-81
2023/11/30 02:56:11;;;;;;;11.88;10.55;;;;;;;;;;5028296;28;20443;-81
2023/11/30 02:58:39;;;;;;;14.65;11.50;;;;;;;;;;5025878;28;20048;-81
2023/11/30 03:01:06;;;;;;;11.80;9.57;;;;;;;;;;5036039;28;20056;-82
2023/11/30 03:03:35;;;;;;;14.52;10.23;;;;;;;;;;5020379;28;20049;-81
2023/11/30 03:06:02;;;;;;;12.57;10.55;;;;;;;;;;5026712;28;20049;-81
2023/11/30 03:08:32;;;;;;;11.77;9.48;;;;;;;;;;5024457;28;20049;-81
2023/11/30 03:11:00;;;;;;;10.68;8.93;;;;;;;;;;5050773;28;20056;-82
2023/11/30 03:13:27;;;;;;;15.63;10.95;;;;;;;;;;5023835;28;20053;-81
2023/11/30 03:15:56;;;;;;;15.48;12.10;;;;;;;;;;5016475;28;20388;-81
2023/11/30 03:18:25;;;;;;;12.70;11.40;;;;;;;;;;5015913;28;20057;-81
2023/11/30 03:20:55;;;;;;;15.02;11.40;;;;;;;;;;5034862;28;20054;-81
2023/11/30 03:23:25;;;;;;;13.63;11.88;;;;;;;;;;5040337;28;20499;-81
2023/11/30 03:25:53;;;;;;;15.45;12.27;;;;;;;;;;5015637;28;20056;-81
2023/11/30 03:28:20;;;;;;;13.65;12.35;;;;;;;;;;5020821;28;20054;-81
2023/11/30 03:30:52;;;;;;;13.68;12.00;;;;;;;;;;5018514;28;20407;-81
2023/11/30 03:33:20;;;;;;;15.43;12.73;;;;;;;;;;5016346;28;20065;-81
2023/11/30 03:35:50;;;;;;;15.80;12.10;;;;;;;;;;5036548;28;20403;-81
2023/11/30 03:38:20;;;;;;;12.38;10.38;;;;;;;;;;5031612;28;20045;-81
2023/11/30 03:40:50;;;;;;;14.43;11.52;;;;;;;;;;5022068;28;20052;-81
2023/11/30 03:43:17;;;;;;;15.20;11.85;;;;;;;;;;5023162;28;20049;-81
2023/11/30 03:45:44;;;;;;;13.85;12.20;;;;;;;;;;5037087;28;20483;-81
2023/11/30 03:48:14;;;;;;;12.20;11.00;;;;;;;;;;5036108;28;20048;-81
2023/11/30 03:50:45;;;;;;;13.40;11.38;;;;;;;;;;5034816;28;20037;-81
2023/11/30 03:53:15;;;;;;;12.35;10.38;;;;;;;;;;5041146;28;20045;-81
2023/11/30 03:55:44;;;;;;;14.73;11.60;;;;;;;;;;5039698;28;20056;-81
2023/11/30 03:58:11;;;;;;;14.90;10.45;;;;;;;;;;5021908;28;20045;-81
2023/11/30 04:00:39;;;;;;;15.35;11.30;;;;;;;;;;5032553;28;20056;-81
2023/11/30 04:03:08;;;;;;;13.30;11.45;;;;;;;;;;5024744;28;20038;-81
2023/11/30 04:05:36;;;;;;;12.18;10.15;;;;;;;;;;5037337;28;20500;-81
2023/11/30 04:08:07;;;;;;;12.20;10.90;;;;;;;;;;5015105;28;20043;-81
2023/11/30 04:10:34;;;;;;;15.57;11.63;;;;;;;;;;5015303;28;20060;-81
2023/11/30 04:13:04;;;;;;;14.00;11.07;;;;;;;;;;5014789;28;20046;-81
2023/11/30 04:15:32;;;;;;;12.20;10.88;;;;;;;;;;5023821;28;20049;-81
2023/11/30 04:18:03;;;;;;;12.40;9.73;;;;;;;;;;5011483;28;20037;-81
2023/11/30 04:20:30;;;;;;;11.63;9.88;;;;;;;;;;5032407;28;20408;-81
2023/11/30 04:22:58;;;;;;;12.27;9.98;;;;;;;;;;5038840;28;20048;-81
2023/11/30 04:25:27;;;;;;;15.30;11.32;;;;;;;;;;5033265;28;20053;-81
2023/11/30 04:27:54;;;;;;;12.27;10.27;;;;;;;;;;5018082;28;20041;-81
2023/11/30 04:30:21;;;;;;;12.52;9.65;;;;;;;;;;5073401;22;20047;-79
2023/11/30 04:32:49;;;;;;;10.90;9.80;;;;;;;;;;5084719;28;20409;-78
2023/11/30 04:35:18;;;;;;;11.50;10.02;;;;;;;;;;5056692;28;20064;-78
2023/11/30 04:37:45;;;;;;;11.40;10.20;;;;;;;;;;5074661;28;20063;-78
2023/11/30 04:40:15;;;;;;;11.20;10.02;;;;;;;;;;5057751;28;20055;-80
2023/11/30 04:42:46;;;;;;;13.40;10.43;;;;;;;;;;5054759;28;20509;-80
2023/11/30 04:45:13;;;;;;;13.05;8.88;;;;;;;;;;5079888;28;20528;-80
2023/11/30 04:47:41;;;;;;;13.98;10.23;;;;;;;;;;5061981;28;20051;-80
2023/11/30 04:50:11;;;;;;;12.38;9.07;;;;;;;;;;5061687;28;20048;-80
2023/11/30 04:52:39;;;;;;;12.55;10.75;;;;;;;;;;5068501;28;20397;-80
2023/11/30 04:55:08;;;;;;;13.32;10.25;;;;;;;;;;5082874;28;20051;-80
2023/11/30 04:57:35;;;;;;;10.57;9.45;;;;;;;;;;5058748;28;20051;-80
2023/11/30 05:00:10;;;;;;;10.30;8.73;;;;;;;;;;5052504;28;20044;-80
2023/11/30 05:02:38;;;;;;;14.30;11.80;;;;;;;;;;5065022;28;20056;-80
2023/11/30 05:05:07;;;;;;;13.38;10.25;;;;;;;;;;5067668;28;20055;-80
2023/11/30 05:07:34;;;;;;;10.30;9.13;;;;;;;;;;5060638;28;20048;-80
2023/11/30 05:10:05;;;;;;;13.32;10.38;;;;;;;;;;5072252;28;20051;-81
2023/11/30 05:12:32;;;;;;;10.38;8.77;;;;;;;;;;5053562;28;20059;-79
2023/11/30 05:15:02;;;;;;;11.93;9.38;;;;;;;;;;5074987;28;20130;-79
2023/11/30 05:17:34;;;;;;;10.05;8.93;;;;;;;;;;5060961;28;20051;-79
2023/11/30 05:20:04;;;;;;;11.05;9.82;;;;;;;;;;5051845;28;20055;-79
2023/11/30 05:22:33;;;;;;;12.68;10.77;;;;;;;;;;5067842;28;20245;-79
2023/11/30 05:25:04;;;;;;;12.20;10.30;;;;;;;;;;5050671;28;20490;-79
2023/11/30 05:27:34;;;;;;;13.80;10.18;;;;;;;;;;5059293;28;20063;-79
2023/11/30 05:30:05;;;;;;;10.30;8.57;;;;;;;;;;5065354;28;20114;-80
2023/11/30 05:32:34;;;;;;;10.20;9.18;;;;;;;;;;5076078;28;20071;-80
2023/11/30 05:35:01;;;;;;;15.45;8.98;;;;;;;;;;5076373;28;20552;-80
2023/11/30 05:37:30;;;;;;;12.15;9.95;;;;;;;;;;5062731;28;20063;-80
2023/11/30 05:40:00;;;;;;;10.70;8.70;;;;;;;;;;5050770;28;20036;-80
2023/11/30 05:42:28;;;;;;;12.85;10.10;;;;;;;;;;5072118;28;20044;-80
2023/11/30 05:44:55;;;;;;;10.57;9.45;;;;;;;;;;5049808;28;20050;-80
2023/11/30 05:47:25;;;;;;;10.50;8.68;;;;;;;;;;5055698;28;20502;-79
2023/11/30 05:49:56;;;;;;;10.45;9.25;;;;;;;;;;5065826;28;20044;-80
2023/11/30 05:52:23;;;;;;;11.80;8.38;;;;;;;;;;5041880;28;20059;-79
2023/11/30 05:54:50;;;;;;;10.40;7.57;;;;;;;;;;5049039;28;20059;-80
2023/11/30 05:57:20;;;;;;;10.27;9.13;;;;;;;;;;5081396;28;20410;-80
2023/11/30 05:59:49;;;;;;;9.80;7.97;;;;;;;;;;5069193;28;20398;-80
2023/11/30 06:02:17;;;;;;;10.63;8.98;;;;;;;;;;5076382;28;20063;-80
2023/11/30 06:04:50;;;;;;;11.13;7.47;;;;;;;;;;5064260;28;20040;-79
2023/11/30 06:07:18;;;;;;;10.68;8.30;;;;;;;;;;5067559;28;20048;-79
2023/11/30 06:09:48;;;;;;;8.88;7.88;;;;;;;;;;5075794;28;20051;-79
2023/11/30 06:12:18;;;;;;;11.20;8.18;;;;;;;;;;5077696;28;20048;-80
2023/11/30 06:14:45;;;;;;;9.38;7.30;;;;;;;;;;5075121;28;20410;-80
2023/11/30 06:17:12;;;;;;;10.57;8.05;;;;;;;;;;5081210;28;20048;-80
2023/11/30 06:19:40;;;;;;;8.18;6.25;;;;;;;;;;5043849;28;20044;-80
2023/11/30 06:22:07;;;;;;;7.70;6.47;;;;;;;;;;5053470;28;20246;-80
2023/11/30 06:24:36;;;;;;;9.48;7.10;;;;;;;;;;5051384;28;20063;-80
2023/11/30 06:27:07;;;;;;;8.35;7.30;;;;;;;;;;5072979;28;20068;-80
2023/11/30 06:29:36;;;;;;;8.88;7.30;;;;;;;;;;5055139;28;20510;-80
2023/11/30 06:32:04;;;;;;;10.40;8.73;;;;;;;;;;5055722;28;20044;-79
2023/11/30 06:34:33;;;;;;;8.73;7.82;;;;;;;;;;5056635;28;20052;-79
2023/11/30 06:37:00;;;;;;;8.13;7.30;;;;;;;;;;5061400;28;20067;-79
2023/11/30 06:39:28;;;;;;;8.40;7.50;;;;;;;;;;5065101;28;20417;-80
2023/11/30 06:41:57;;;;;;;9.20;7.88;;;;;;;;;;5065372;28;20071;-80
2023/11/30 06:44:25;;;;;;;10.50;7.57;;;;;;;;;;5050336;28;20048;-80
2023/11/30 06:46:55;;;;;;;10.27;7.35;;;;;;;;;;5071941;28;20059;-80
2023/11/30 06:49:23;;;;;;;13.20;8.75;;;;;;;;;;5070239;28;20051;-79
2023/11/30 06:51:50;;;;;;;12.23;8.27;;;;;;;;;;5067267;28;20414;-79
2023/11/30 06:54:20;;;;;;;10.35;8.60;;;;;;;;;;5097671;28;20059;-79
2023/11/30 06:56:50;;;;;;;11.05;8.93;;;;;;;;;;5059614;28;20055;-79
2023/11/30 06:59:18;;;;;;;12.95;10.23;;;;;;;;;;5093371;28;20051;-80
2023/11/30 07:01:46;;;;;;;10.10;7.68;;;;;;;;;;5071329;28;20048;-80
2023/11/30 07:04:16;;;;;;;12.90;8.98;;;;;;;;;;5053349;28;20153;-80
2023/11/30 07:06:43;;;;;;;10.80;9.65;;;;;;;;;;5059536;28;20052;-80
2023/11/30 07:09:13;;;;;;;9.73;8.70;;;;;;;;;;5070899;28;20048;-80
2023/11/30 07:11:42;;;;;;;11.15;8.90;;;;;;;;;;5054613;28;20072;-80
2023/11/30 07:14:12;;;;;;;11.30;8.60;;;;;;;;;;5061110;28;20063;-80
2023/11/30 07:16:40;;;;;;;13.52;11.52;;;;;;;;;;5091397;28;20032;-80
2023/11/30 07:19:10;;;;;;;10.18;8.90;;;;;;;;;;5073866;28;20053;-79
2023/11/30 07:21:39;;;;;;;17.00;11.75;;;;;;;;;;5075257;28;20042;-80
2023/11/30 07:24:07;;;;;;;12.88;9.48;;;;;;;;;;5080894;28;20048;-80
2023/11/30 07:26:34;;;;;;;13.00;10.32;;;;;;;;;;5076179;28;20063;-80
2023/11/30 07:29:01;;;;;;;16.08;9.77;;;;;;;;;;5092329;28;20052;-79
2023/11/30 07:31:29;;;;;;;10.95;8.93;;;;;;;;;;5085031;28;20522;-80
2023/11/30 07:33:59;;;;;;;12.93;10.20;;;;;;;;;;5064660;28;20045;-80
2023/11/30 07:36:27;;;;;;;9.82;7.75;;;;;;;;;;5067424;28;22130;-80
2023/11/30 07:38:57;;;;;;;13.30;9.63;;;;;;;;;;5092207;28;20043;-80
2023/11/30 07:41:24;;;;;;;12.60;10.63;;;;;;;;;;5082751;28;20052;-80
2023/11/30 07:43:53;;;;;;;10.55;9.45;;;;;;;;;;5092217;28;20052;-79
2023/11/30 07:46:23;;;;;;;11.32;10.13;;;;;;;;;;5074811;28;20060;-80
2023/11/30 07:48:50;;;;;;;13.20;10.43;;;;;;;;;;5093501;28;20051;-80
2023/11/30 07:51:19;;;;;;;11.02;8.88;;;;;;;;;;5079330;28;20506;-80
2023/11/30 07:53:47;;;;;;;10.40;9.32;;;;;;;;;;5069452;28;20056;-80
2023/11/30 07:56:20;;;;;;;14.40;8.95;;;;;;;;;;5088356;28;20068;-80
2023/11/30 07:58:48;;;;;;;12.38;9.90;;;;;;;;;;5055025;28;20048;-79
2023/11/30 08:01:15;;;;;;;12.50;8.32;;;;;;;;;;5074510;28;20043;-80
2023/11/30 08:03:43;;;;;;;11.60;9.05;;;;;;;;;;5075378;28;20040;-80
2023/11/30 08:06:13;;;;;;;11.48;8.45;;;;;;;;;;5076526;28;20059;-80
2023/11/30 08:08:42;;;;;;;10.93;8.55;;;;;;;;;;5088475;28;20052;-80
2023/11/30 08:11:14;;;;;;;13.13;9.55;;;;;;;;;;5054448;28;20520;-80
2023/11/30 08:13:45;;;;;;;10.63;8.55;;;;;;;;;;5068441;28;20056;-81
2023/11/30 08:16:14;;;;;;;9.85;7.82;;;;;;;;;;5059982;28;20048;-81
2023/11/30 08:18:47;;;;;;;10.45;9.30;;;;;;;;;;5080145;28;20052;-81
2023/11/30 08:21:14;;;;;;;10.13;8.18;;;;;;;;;;5053717;28;20044;-81
2023/11/30 08:23:43;;;;;;;9.93;7.60;;;;;;;;;;5072278;28;20040;-81
2023/11/30 08:26:11;;;;;;;10.63;9.05;;;;;;;;;;5058928;28;20047;-81
2023/11/30 08:28:41;;;;;;;12.18;8.73;;;;;;;;;;5074846;28;20059;-81
2023/11/30 08:31:08;;;;;;;11.27;8.60;;;;;;;;;;5070511;28;20040;-80
2023/11/30 08:33:35;;;;;;;12.60;10.27;;;;;;;;;;5069137;28;20040;-81
2023/11/30 08:36:06;;;;;;;9.80;8.55;;;;;;;;;;5066114;28;20531;-80
2023/11/30 08:38:33;;;;;;;12.65;8.70;;;;;;;;;;5091712;28;20047;-81
2023/11/30 08:41:05;;;;;;;9.38;8.35;;;;;;;;;;5100565;28;20079;-81
2023/11/30 08:43:32;;;;;;;10.00;7.95;;;;;;;;;;5077599;28;20055;-81
2023/11/30 08:46:02;;;;;;;10.30;8.13;;;;;;;;;;5058358;28;20049;-81
2023/11/30 08:48:29;;;;;;;11.23;8.70;;;;;;;;;;5071755;28;20053;-81
2023/11/30 08:50:58;;;;;;;12.07;8.30;;;;;;;;;;5082187;28;20114;-81
2023/11/30 08:53:28;;;;;;;10.15;9.02;;;;;;;;;;5070672;28;20110;-81
2023/11/30 08:55:58;;;;;;;9.73;8.00;;;;;;;;;;5078950;28;20043;-81
2023/11/30 08:58:26;;;;;;;11.60;9.88;;;;;;;;;;5089686;28;20052;-81
2023/11/30 09:00:56;;;;;;;11.30;9.57;;;;;;;;;;5077377;28;20043;-80
2023/11/30 09:03:23;;;;;;;12.68;9.25;;;;;;;;;;5094972;28;20049;-81
2023/11/30 09:05:53;;;;;;;11.52;7.20;;;;;;;;;;5048340;28;20437;-81
2023/11/30 09:08:20;;;;;;;12.18;8.52;;;;;;;;;;5069087;28;20048;-81
2023/11/30 09:10:50;;;;;;;10.35;8.80;;;;;;;;;;5072667;28;20064;-81
2023/11/30 09:13:22;;;;;;;10.98;8.30;;;;;;;;;;5101045;28;20048;-82
2023/11/30 09:15:50;;;;;;;9.80;8.18;;;;;;;;;;5092224;28;20040;-81
2023/11/30 09:18:18;;;;;;;9.45;8.43;;;;;;;;;;5093296;28;20048;-82
2023/11/30 09:20:45;;;;;;;10.10;8.23;;;;;;;;;;5070300;28;20047;-82
2023/11/30 09:23:12;;;;;;;10.27;7.95;;;;;;;;;;5091851;28;20052;-82
2023/11/30 09:25:39;;;;;;;9.02;7.78;;;;;;;;;;5088139;28;20041;-82
2023/11/30 09:28:09;;;;;;;8.90;6.95;;;;;;;;;;5070074;28;20049;-82
2023/11/30 09:30:37;;;;;;;7.28;6.45;;;;;;;;;;5069995;28;20051;-81
2023/11/30 09:33:06;;;;;;;9.35;7.82;;;;;;;;;;5101835;28;20047;-81
2023/11/30 09:35:33;;;;;;;9.60;6.72;;;;;;;;;;5080253;28;20131;-81
2023/11/30 09:38:01;;;;;;;10.52;7.40;;;;;;;;;;5062413;28;20048;-81
2023/11/30 09:40:30;;;;;;;7.25;6.28;;;;;;;;;;5101327;28;20051;-81
2023/11/30 09:42:57;;;;;;;6.82;5.60;;;;;;;;;;5093808;28;20051;-81
2023/11/30 09:45:28;;;;;;;7.60;6.00;;;;;;;;;;5099995;28;20054;-81
2023/11/30 09:47:55;;;;;;;8.68;6.43;;;;;;;;;;5055678;28;20056;-81
2023/11/30 09:50:24;;;;;;;7.10;5.40;;;;;;;;;;5065690;28;20062;-81
2023/11/30 09:52:52;;;;;;;8.27;6.47;;;;;;;;;;5063890;28;20056;-81
2023/11/30 09:55:25;;;;;;;5.63;5.03;;;;;;;;;;5083302;28;20051;-81
2023/11/30 09:57:52;;;;;;;8.00;5.82;;;;;;;;;;5094788;28;20052;-81
2023/11/30 10:00:20;;;;;;;7.07;5.70;;;;;;;;;;5060960;28;20611;-81
2023/11/30 10:02:52;;;;;;;7.32;5.97;;;;;;;;;;5080942;28;20063;-81
2023/11/30 10:05:19;;;;;;;7.60;5.68;;;;;;;;;;5082028;28;20052;-81
2023/11/30 10:07:48;;;;;;;6.45;4.80;;;;;;;;;;5080305;28;20051;-81
2023/11/30 10:10:18;;;;;;;6.30;5.43;;;;;;;;;;5082933;28;20506;-81
2023/11/30 10:12:45;;;;;;;7.35;5.00;;;;;;;;;;5085345;28;20048;-81
2023/11/30 10:15:15;;;;;;;7.53;5.80;;;;;;;;;;5074612;28;20519;-81
2023/11/30 10:17:43;;;;;;;7.75;6.20;;;;;;;;;;5079849;28;20050;-81
2023/11/30 10:20:11;;;;;;;5.93;5.22;;;;;;;;;;5066569;28;20040;-81
2023/11/30 10:22:41;;;;;;;5.38;4.43;;;;;;;;;;5101194;28;20048;-81
2023/11/30 10:25:14;;;;;;;6.38;4.75;;;;;;;;;;5085291;28;20048;-81
2023/11/30 10:27:46;;;;;;;5.05;4.40;;;;;;;;;;5068136;28;20055;-81
2023/11/30 10:45:39;;;;;;;5.93;5.22;;;;;;;;;;4939988;29;20056;-80
2023/11/30 12:02:37;;;;;;;4.05;3.65;;;;;;;;;;4550936;22;20049;-81
2023/11/30 12:05:09;;;;;;;4.28;3.35;;;;;;;;;;5031017;28;20055;-81
2023/11/30 12:07:48;;;;;;;4.57;3.47;;;;;;;;;;5012789;28;20046;-81
2023/11/30 12:10:29;;;;;;;3.95;3.40;;;;;;;;;;5007085;28;20041;-81
2023/11/30 14:40:14;;;;;;;6.90;5.30;;;;;;;;;;6226838;22;20011;-81
2023/11/30 14:42:41;;;;;;;5.95;4.72;;;;;;;;;;5019762;28;20042;-81
2023/11/30 14:45:09;;;;;;;6.18;4.80;;;;;;;;;;5006094;28;20047;-81
2023/11/30 14:47:39;;;;;;;6.40;5.32;;;;;;;;;;4985909;28;20062;-81
2023/11/30 15:56:40;;;;;;;6.00;5.35;;;;;;;;;;5705454;22;20061;-80
2023/11/30 16:18:46;;;;;;;5.93;4.53;;;;;;;;;;6160576;22;20019;-86
2023/11/30 16:21:15;;;;;;;5.65;3.83;;;;;;;;;;5013477;28;20411;-80
2023/11/30 16:23:43;;;;;;;6.35;4.82;;;;;;;;;;5014711;28;20052;-80
2023/11/30 16:26:19;;;;;;;5.13;4.38;;;;;;;;;;5015317;28;20048;-80
2023/11/30 16:28:47;;;;;;;4.57;3.15;;;;;;;;;;5042671;22;20033;-80
2023/11/30 16:31:17;;;;;;;6.05;4.20;;;;;;;;;;5039726;28;20053;-79
2023/11/30 16:33:46;;;;;;;4.97;4.30;;;;;;;;;;5025384;28;20045;-79
2023/11/30 16:36:12;;;;;;;6.40;4.55;;;;;;;;;;5033376;28;20407;-79
2023/11/30 16:38:40;;;;;;;5.60;4.82;;;;;;;;;;5041758;28;20088;-79
2023/11/30 16:41:07;;;;;;;9.23;6.40;;;;;;;;;;5025113;28;20063;-79
2023/11/30 16:43:36;;;;;;;7.10;6.40;;;;;;;;;;5040542;28;20045;-79
2023/11/30 16:46:03;;;;;;;6.15;4.65;;;;;;;;;;5041758;28;20056;-79
2023/11/30 16:48:33;;;;;;;4.93;4.45;;;;;;;;;;5037655;28;20061;-79
2023/11/30 16:51:04;;;;;;;5.07;4.53;;;;;;;;;;5041299;28;20479;-79
2023/11/30 16:53:33;;;;;;;5.65;3.70;;;;;;;;;;5034119;28;20037;-79
2023/11/30 16:56:00;;;;;;;6.32;4.75;;;;;;;;;;5056265;28;20053;-79
2023/11/30 16:58:29;;;;;;;4.43;4.03;;;;;;;;;;5040383;28;20280;-79
2023/11/30 17:00:56;;;;;;;6.35;4.25;;;;;;;;;;5022903;28;20049;-79
2023/11/30 17:03:25;;;;;;;4.13;3.47;;;;;;;;;;5024437;28;20048;-79
2023/11/30 17:05:55;;;;;;;5.57;4.18;;;;;;;;;;5024226;28;20056;-80
2023/11/30 17:08:24;;;;;;;6.18;5.40;;;;;;;;;;5035767;28;20058;-79
2023/11/30 17:10:54;;;;;;;6.13;4.95;;;;;;;;;;5019099;28;20045;-80
2023/11/30 17:13:22;;;;;;;7.22;4.95;;;;;;;;;;5020420;28;20518;-79
2023/11/30 17:15:49;;;;;;;7.15;4.93;;;;;;;;;;5023490;28;20053;-79
2023/11/30 17:18:19;;;;;;;5.55;4.43;;;;;;;;;;5022753;28;20057;-79
2023/11/30 17:20:49;;;;;;;4.43;3.50;;;;;;;;;;5037316;28;20045;-79
2023/11/30 17:23:17;;;;;;;4.57;4.18;;;;;;;;;;5038913;28;20037;-79
2023/11/30 17:25:46;;;;;;;7.35;5.03;;;;;;;;;;5020363;28;20049;-80
2023/11/30 17:28:13;;;;;;;4.80;4.25;;;;;;;;;;5018327;28;20060;-80
2023/11/30 17:30:45;;;;;;;5.60;4.18;;;;;;;;;;5021348;28;20052;-79
2023/11/30 17:33:15;;;;;;;4.80;4.40;;;;;;;;;;5036984;28;20060;-79
2023/11/30 17:35:42;;;;;;;5.57;4.07;;;;;;;;;;5035117;28;20054;-79
2023/11/30 17:38:09;;;;;;;5.20;4.50;;;;;;;;;;5020492;28;20045;-79
2023/11/30 17:40:37;;;;;;;7.25;5.28;;;;;;;;;;5019814;28;20052;-79
2023/11/30 17:43:06;;;;;;;5.85;5.15;;;;;;;;;;5020312;28;20530;-79
2023/11/30 17:45:33;;;;;;;7.03;5.35;;;;;;;;;;5034481;28;20057;-80
2023/11/30 17:48:05;;;;;;;5.50;4.80;;;;;;;;;;5034903;28;20055;-79
2023/11/30 17:50:32;;;;;;;7.45;6.43;;;;;;;;;;5037462;28;20067;-79
2023/11/30 17:53:02;;;;;;;6.03;5.43;;;;;;;;;;5026404;28;20052;-79
2023/11/30 17:55:30;;;;;;;7.25;6.07;;;;;;;;;;5018614;28;20506;-81
2023/11/30 17:58:00;;;;;;;8.23;7.22;;;;;;;;;;5036722;28;20048;-81
2023/11/30 18:00:28;;;;;;;6.45;5.82;;;;;;;;;;5021137;28;20056;-81
2023/11/30 18:02:58;;;;;;;6.00;4.63;;;;;;;;;;5038998;28;20403;-81
2023/11/30 18:05:25;;;;;;;8.52;6.93;;;;;;;;;;5026192;28;20068;-81
2023/11/30 18:07:55;;;;;;;8.88;6.15;;;;;;;;;;5034446;28;20049;-81
2023/11/30 18:10:22;;;;;;;7.63;5.80;;;;;;;;;;5018678;28;20061;-81
2023/11/30 18:12:49;;;;;;;9.43;8.43;;;;;;;;;;5015001;28;20057;-81
2023/11/30 18:15:17;;;;;;;7.45;6.35;;;;;;;;;;5022311;28;20052;-81
2023/11/30 18:17:45;;;;;;;10.27;7.38;;;;;;;;;;5021848;28;20056;-81
2023/11/30 18:20:13;;;;;;;10.25;7.72;;;;;;;;;;5039008;28;20040;-80
2023/11/30 18:22:40;;;;;;;10.27;7.80;;;;;;;;;;5032396;28;20072;-80
2023/11/30 18:25:09;;;;;;;6.82;5.95;;;;;;;;;;5029818;28;20048;-80
2023/11/30 18:27:36;;;;;;;6.80;5.47;;;;;;;;;;5034990;28;20059;-80
2023/11/30 18:30:04;;;;;;;6.47;5.70;;;;;;;;;;5021573;28;20381;-81
2023/11/30 18:32:33;;;;;;;6.85;5.15;;;;;;;;;;5048277;28;20049;-80
2023/11/30 18:35:05;;;;;;;9.68;6.97;;;;;;;;;;5055205;28;20041;-80
2023/11/30 18:37:32;;;;;;;7.90;6.65;;;;;;;;;;5031109;28;20063;-81
2023/11/30 18:40:00;;;;;;;8.10;5.88;;;;;;;;;;5021315;28;20533;-81
2023/11/30 18:42:30;;;;;;;7.93;7.03;;;;;;;;;;5056010;28;20053;-81
2023/11/30 18:44:57;;;;;;;8.32;7.53;;;;;;;;;;5038925;28;20052;-81
2023/11/30 18:47:27;;;;;;;11.07;6.25;;;;;;;;;;5039666;28;20064;-81
2023/11/30 18:49:57;;;;;;;7.43;5.65;;;;;;;;;;5020642;28;20048;-81
2023/11/30 18:52:28;;;;;;;5.57;4.88;;;;;;;;;;5022614;28;20053;-81
2023/11/30 18:54:55;;;;;;;6.47;5.88;;;;;;;;;;5037011;28;20044;-81
2023/11/30 18:57:22;;;;;;;8.07;6.60;;;;;;;;;;5020839;28;20057;-81
2023/11/30 18:59:52;;;;;;;9.10;6.85;;;;;;;;;;5036081;28;20052;-81
2023/11/30 19:02:19;;;;;;;8.18;6.25;;;;;;;;;;5053244;28;20064;-81
2023/11/30 19:04:47;;;;;;;7.20;6.50;;;;;;;;;;5037809;28;20052;-81
2023/11/30 19:07:16;;;;;;;6.97;5.55;;;;;;;;;;5003478;28;20056;-81
2023/11/30 19:09:50;;;;;;;6.43;5.65;;;;;;;;;;5021999;28;20056;-81
2023/11/30 19:12:16;;;;;;;9.95;6.60;;;;;;;;;;5036868;28;20053;-81
2023/11/30 19:14:44;;;;;;;5.93;5.13;;;;;;;;;;5054589;28;20049;-81
2023/11/30 19:17:13;;;;;;;8.52;6.15;;;;;;;;;;5020013;28;20049;-81
2023/11/30 19:19:40;;;;;;;7.80;5.47;;;;;;;;;;5034817;28;20053;-81
2023/11/30 19:22:08;;;;;;;8.48;6.05;;;;;;;;;;5020702;28;20044;-81
2023/11/30 19:24:36;;;;;;;7.30;5.90;;;;;;;;;;5034088;28;20033;-81
2023/11/30 19:27:05;;;;;;;6.03;5.45;;;;;;;;;;5052534;28;20060;-81
2023/11/30 19:29:32;;;;;;;7.15;5.40;;;;;;;;;;5018519;28;20051;-81
2023/11/30 19:32:02;;;;;;;6.95;6.13;;;;;;;;;;5049505;28;20056;-81
2023/11/30 19:34:32;;;;;;;8.13;5.72;;;;;;;;;;5054006;28;20041;-81
2023/11/30 19:36:59;;;;;;;6.97;6.07;;;;;;;;;;5039692;28;20184;-81
2023/11/30 19:39:28;;;;;;;8.13;7.43;;;;;;;;;;5038786;28;20060;-81
2023/11/30 19:41:56;;;;;;;7.72;6.00;;;;;;;;;;5056457;28;20125;-81
2023/11/30 19:44:28;;;;;;;6.50;5.85;;;;;;;;;;5057720;28;20056;-81
2023/11/30 19:46:55;;;;;;;8.52;6.68;;;;;;;;;;5041413;28;20494;-81
2023/11/30 19:49:22;;;;;;;8.30;7.30;;;;;;;;;;5023816;28;20053;-81
2023/11/30 19:51:50;;;;;;;9.95;8.95;;;;;;;;;;5023750;28;20052;-81
2023/11/30 19:54:18;;;;;;;9.93;7.30;;;;;;;;;;5040946;28;20049;-81
2023/11/30 19:56:45;;;;;;;8.00;6.40;;;;;;;;;;5025328;28;20224;-80
2023/11/30 19:59:12;;;;;;;7.45;6.68;;;;;;;;;;5058991;28;20049;-80
2023/11/30 20:01:41;;;;;;;9.02;6.20;;;;;;;;;;5024597;28;20059;-80